createdAt,value
2023-04-23T00:00:31.500Z,0.00
2023-04-23T00:01:31.861Z,0.00
2023-04-23T00:02:32.309Z,0.00
2023-04-23T00:03:32.879Z,0.00
2023-04-23T00:04:33.104Z,0.00
2023-04-23T00:05:33.298Z,0.00
2023-04-23T00:06:33.656Z,0.00
2023-04-23T00:07:34.012Z,0.00
2023-04-23T00:08:34.384Z,0.00
2023-04-23T00:09:34.755Z,0.00
2023-04-23T00:10:35.077Z,0.00
2023-04-23T00:11:35.447Z,0.00
2023-04-23T00:12:35.796Z,0.00
2023-04-23T00:13:36.176Z,0.00
2023-04-23T00:14:36.542Z,0.00
2023-04-23T00:15:36.930Z,0.00
2023-04-23T00:16:37.346Z,0.00
2023-04-23T00:17:37.735Z,0.00
2023-04-23T00:18:38.051Z,0.00
2023-04-23T00:19:38.368Z,0.00
2023-04-23T00:20:38.739Z,0.00
2023-04-23T00:21:39.116Z,0.00
2023-04-23T00:22:39.482Z,0.00
2023-04-23T00:23:39.868Z,0.00
2023-04-23T00:24:40.383Z,0.00
2023-04-23T00:25:40.581Z,0.00
2023-04-23T00:26:40.926Z,0.00
2023-04-23T00:27:41.282Z,0.00
2023-04-23T00:28:41.678Z,0.00
2023-04-23T00:29:41.986Z,0.00
2023-04-23T00:30:42.357Z,0.00
2023-04-23T00:31:42.724Z,0.00
2023-04-23T00:32:43.126Z,0.00
2023-04-23T00:33:43.440Z,0.00
2023-04-23T00:34:43.980Z,0.00
2023-04-23T00:35:44.174Z,0.00
2023-04-23T00:36:44.523Z,0.00
2023-04-23T00:37:44.879Z,0.00
2023-04-23T00:38:45.246Z,0.00
2023-04-23T00:39:45.605Z,0.00
2023-04-23T00:40:45.929Z,0.00
2023-04-23T00:41:46.304Z,0.00
2023-04-23T00:42:46.656Z,0.00
2023-04-23T00:43:47.050Z,0.00
2023-04-23T00:44:47.388Z,0.00
2023-04-23T00:45:47.800Z,0.00
2023-04-23T00:46:48.084Z,0.00
2023-04-23T00:47:48.479Z,0.00
2023-04-23T00:48:48.863Z,0.00
2023-04-23T00:49:49.180Z,0.00
2023-04-23T00:50:49.571Z,0.00
2023-04-23T00:51:49.927Z,0.00
2023-04-23T00:52:50.288Z,0.00
2023-04-23T00:53:50.669Z,0.00
2023-04-23T00:54:50.995Z,0.00
2023-04-23T00:55:51.363Z,0.00
2023-04-23T00:56:51.712Z,0.00
2023-04-23T00:57:52.077Z,0.00
2023-04-23T00:58:52.457Z,0.00
2023-04-23T00:59:52.805Z,0.00
2023-04-23T01:00:53.140Z,0.00
2023-04-23T01:01:53.475Z,0.00
2023-04-23T01:02:53.942Z,0.00
2023-04-23T01:03:54.416Z,0.00
2023-04-23T01:04:54.582Z,0.00
2023-04-23T01:05:54.907Z,0.00
2023-04-23T01:06:55.269Z,0.00
2023-04-23T01:07:55.635Z,0.00
2023-04-23T01:08:56.016Z,0.00
2023-04-23T01:09:56.342Z,0.00
2023-04-23T01:10:56.705Z,0.00
2023-04-23T01:11:57.062Z,0.00
2023-04-23T01:12:57.428Z,0.00
2023-04-23T01:13:57.803Z,0.00
2023-04-23T01:14:58.123Z,0.00
2023-04-23T01:15:58.494Z,0.00
2023-04-23T01:16:58.897Z,0.00
2023-04-23T01:17:59.254Z,0.00
2023-04-23T01:18:59.618Z,0.00
2023-04-23T01:19:59.931Z,0.00
2023-04-23T01:21:00.332Z,0.00
2023-04-23T01:22:00.664Z,0.00
2023-04-23T01:23:01.029Z,0.00
2023-04-23T01:24:01.430Z,0.00
2023-04-23T01:25:01.748Z,0.00
2023-04-23T01:26:02.125Z,0.00
2023-04-23T01:27:02.492Z,0.00
2023-04-23T01:28:02.875Z,0.00
2023-04-23T01:29:03.249Z,0.00
2023-04-23T01:30:03.582Z,0.00
2023-04-23T01:31:03.969Z,0.00
2023-04-23T01:32:04.317Z,0.00
2023-04-23T01:33:04.694Z,0.00
2023-04-23T01:34:05.075Z,0.00
2023-04-23T01:35:05.411Z,0.00
2023-04-23T01:36:05.761Z,0.00
2023-04-23T01:37:06.110Z,0.00
2023-04-23T01:38:06.512Z,0.00
2023-04-23T01:39:06.885Z,0.00
2023-04-23T01:40:07.215Z,0.00
2023-04-23T01:41:07.571Z,0.00
2023-04-23T01:42:07.930Z,0.00
2023-04-23T01:43:08.308Z,0.00
2023-04-23T01:44:08.698Z,0.00
2023-04-23T01:45:09.050Z,0.00
2023-04-23T01:46:09.466Z,0.00
2023-04-23T01:47:09.770Z,0.00
2023-04-23T01:48:10.141Z,0.00
2023-04-23T01:49:10.550Z,0.00
2023-04-23T01:50:10.877Z,0.00
2023-04-23T01:51:11.221Z,0.00
2023-04-23T01:52:11.587Z,0.00
2023-04-23T01:53:11.954Z,0.00
2023-04-23T01:54:12.346Z,0.00
2023-04-23T01:55:12.682Z,0.00
2023-04-23T01:56:13.046Z,0.00
2023-04-23T01:57:13.416Z,0.00
2023-04-23T01:58:13.776Z,0.00
2023-04-23T01:59:14.161Z,0.00
2023-04-23T02:00:14.487Z,0.00
2023-04-23T02:01:14.898Z,0.00
2023-04-23T02:02:15.225Z,0.00
2023-04-23T02:03:15.671Z,0.00
2023-04-23T02:04:16.018Z,0.00
2023-04-23T02:05:16.271Z,0.00
2023-04-23T02:06:16.653Z,0.00
2023-04-23T02:07:16.999Z,0.00
2023-04-23T02:08:17.371Z,0.00
2023-04-23T02:09:17.742Z,0.00
2023-04-23T02:10:18.060Z,0.00
2023-04-23T02:11:18.441Z,0.00
2023-04-23T02:12:18.820Z,0.00
2023-04-23T02:13:19.153Z,0.00
2023-04-23T02:14:19.550Z,0.00
2023-04-23T02:15:19.898Z,0.00
2023-04-23T02:16:20.263Z,0.00
2023-04-23T02:17:20.572Z,0.00
2023-04-23T02:18:20.936Z,0.00
2023-04-23T02:19:21.306Z,0.00
2023-04-23T02:20:21.661Z,0.00
2023-04-23T02:21:22.018Z,0.00
2023-04-23T02:22:22.412Z,0.00
2023-04-23T02:23:22.725Z,0.00
2023-04-23T02:24:23.111Z,0.00
2023-04-23T02:25:23.463Z,0.00
2023-04-23T02:26:23.792Z,0.00
2023-04-23T02:27:24.137Z,0.00
2023-04-23T02:28:24.500Z,0.00
2023-04-23T02:29:24.943Z,0.00
2023-04-23T02:30:25.229Z,0.00
2023-04-23T02:31:25.683Z,0.00
2023-04-23T02:32:25.972Z,0.00
2023-04-23T02:33:26.308Z,0.00
2023-04-23T02:34:26.714Z,0.00
2023-04-23T02:35:27.041Z,0.00
2023-04-23T02:36:27.385Z,0.00
2023-04-23T02:37:27.756Z,0.00
2023-04-23T02:38:28.123Z,0.00
2023-04-23T02:39:28.505Z,0.00
2023-04-23T02:40:28.820Z,0.00
2023-04-23T02:41:29.185Z,0.00
2023-04-23T02:42:29.564Z,0.00
2023-04-23T02:43:29.931Z,0.00
2023-04-23T02:44:30.266Z,0.00
2023-04-23T02:45:30.601Z,0.00
2023-04-23T02:46:30.976Z,0.00
2023-04-23T02:47:31.389Z,0.00
2023-04-23T02:48:31.730Z,0.00
2023-04-23T02:49:32.127Z,0.00
2023-04-23T02:50:32.436Z,0.00
2023-04-23T02:51:32.790Z,0.00
2023-04-23T02:52:33.154Z,0.00
2023-04-23T02:53:33.523Z,0.00
2023-04-23T02:54:33.908Z,0.00
2023-04-23T02:55:34.230Z,0.00
2023-04-23T02:56:34.600Z,0.00
2023-04-23T02:57:34.965Z,0.00
2023-04-23T02:58:35.324Z,0.00
2023-04-23T02:59:35.696Z,0.00
2023-04-23T03:00:36.064Z,0.00
2023-04-23T03:01:36.402Z,0.00
2023-04-23T03:02:36.897Z,0.00
2023-04-23T03:03:37.432Z,0.00
2023-04-23T03:04:37.533Z,0.00
2023-04-23T03:05:37.848Z,0.00
2023-04-23T03:06:38.190Z,0.00
2023-04-23T03:07:38.582Z,0.00
2023-04-23T03:08:38.926Z,0.00
2023-04-23T03:09:39.315Z,0.00
2023-04-23T03:10:39.651Z,0.00
2023-04-23T03:11:40.033Z,0.00
2023-04-23T03:12:40.390Z,0.00
2023-04-23T03:13:40.771Z,0.00
2023-04-23T03:14:41.428Z,0.00
2023-04-23T03:15:41.487Z,0.00
2023-04-23T03:16:41.968Z,0.00
2023-04-23T03:17:42.296Z,0.00
2023-04-23T03:18:42.589Z,0.00
2023-04-23T03:19:42.956Z,0.00
2023-04-23T03:20:43.303Z,0.00
2023-04-23T03:21:43.648Z,0.00
2023-04-23T03:22:44.015Z,0.00
2023-04-23T03:23:44.393Z,0.00
2023-04-23T03:24:44.770Z,0.00
2023-04-23T03:25:45.091Z,0.00
2023-04-23T03:26:45.453Z,0.00
2023-04-23T03:27:45.816Z,0.00
2023-04-23T03:28:46.205Z,0.00
2023-04-23T03:29:46.554Z,0.00
2023-04-23T03:30:46.913Z,0.00
2023-04-23T03:31:47.324Z,0.00
2023-04-23T03:32:47.725Z,0.00
2023-04-23T03:33:47.974Z,0.00
2023-04-23T03:34:48.103Z,1.00
2023-04-23T03:35:48.270Z,2.00
2023-04-23T03:36:48.429Z,2.00
2023-04-23T03:37:48.611Z,3.00
2023-04-23T03:38:48.898Z,1.00
2023-04-23T03:39:49.093Z,3.00
2023-04-23T03:40:49.237Z,3.00
2023-04-23T03:41:49.428Z,2.00
2023-04-23T03:42:49.588Z,4.00
2023-04-23T03:43:49.749Z,5.00
2023-04-23T03:44:49.944Z,5.00
2023-04-23T03:45:50.268Z,6.00
2023-04-23T03:46:50.509Z,8.00
2023-04-23T03:47:50.843Z,10.00
2023-04-23T03:48:50.970Z,5.00
2023-04-23T03:49:51.181Z,11.00
2023-04-23T03:50:51.300Z,15.00
2023-04-23T03:51:51.574Z,18.00
2023-04-23T03:52:51.871Z,18.00
2023-04-23T03:53:52.161Z,22.00
2023-04-23T03:54:52.507Z,25.00
2023-04-23T03:55:52.660Z,29.00
2023-04-23T03:56:52.945Z,31.00
2023-04-23T03:57:53.238Z,37.00
2023-04-23T03:58:53.395Z,43.00
2023-04-23T03:59:53.711Z,51.00
2023-04-23T04:00:53.857Z,59.00
2023-04-23T04:01:54.032Z,65.00
2023-04-23T04:02:54.430Z,73.00
2023-04-23T04:03:54.742Z,83.00
2023-04-23T04:04:55.248Z,96.00
2023-04-23T04:05:55.012Z,112.00
2023-04-23T04:06:55.261Z,128.00
2023-04-23T04:07:55.423Z,141.00
2023-04-23T04:08:55.607Z,157.00
2023-04-23T04:09:55.810Z,171.00
2023-04-23T04:10:56.082Z,187.00
2023-04-23T04:11:56.280Z,200.00
2023-04-23T04:12:56.414Z,209.00
2023-04-23T04:13:56.599Z,220.00
2023-04-23T04:14:56.882Z,235.00
2023-04-23T04:15:57.072Z,250.00
2023-04-23T04:16:57.220Z,267.00
2023-04-23T04:17:57.417Z,281.00
2023-04-23T04:18:57.598Z,295.00
2023-04-23T04:19:57.770Z,304.00
2023-04-23T04:20:57.930Z,314.00
2023-04-23T04:21:58.097Z,319.00
2023-04-23T04:22:58.279Z,327.00
2023-04-23T04:23:58.447Z,333.00
2023-04-23T04:24:58.635Z,340.00
2023-04-23T04:25:58.800Z,347.00
2023-04-23T04:26:58.967Z,358.00
2023-04-23T04:27:59.148Z,370.00
2023-04-23T04:28:59.313Z,381.00
2023-04-23T04:29:59.637Z,395.00
2023-04-23T04:30:59.820Z,411.00
2023-04-23T04:31:59.976Z,425.00
2023-04-23T04:33:00.188Z,446.00
2023-04-23T04:34:00.303Z,477.00
2023-04-23T04:35:00.493Z,514.00
2023-04-23T04:36:00.780Z,559.00
2023-04-23T04:37:00.939Z,599.00
2023-04-23T04:38:01.246Z,640.00
2023-04-23T04:39:01.397Z,676.00
2023-04-23T04:40:01.594Z,719.00
2023-04-23T04:41:01.877Z,759.00
2023-04-23T04:42:02.144Z,781.00
2023-04-23T04:43:02.327Z,801.00
2023-04-23T04:44:02.468Z,827.00
2023-04-23T04:45:02.666Z,849.00
2023-04-23T04:46:04.646Z,870.00
2023-04-23T04:47:03.034Z,891.00
2023-04-23T04:48:03.162Z,909.00
2023-04-23T04:49:03.341Z,940.00
2023-04-23T04:50:03.527Z,967.00
2023-04-23T04:51:03.698Z,994.00
2023-04-23T04:52:03.864Z,1022.00
2023-04-23T04:53:04.047Z,1045.00
2023-04-23T04:54:04.236Z,1071.00
2023-04-23T04:55:04.640Z,1100.00
2023-04-23T04:56:04.689Z,1119.00
2023-04-23T04:57:04.886Z,1152.00
2023-04-23T04:58:05.062Z,1167.00
2023-04-23T04:59:05.374Z,1202.00
2023-04-23T05:00:05.558Z,1233.00
2023-04-23T05:01:05.842Z,1266.00
2023-04-23T05:02:06.052Z,1287.00
2023-04-23T05:03:06.331Z,1310.00
2023-04-23T05:04:06.769Z,1333.00
2023-04-23T05:05:06.686Z,1356.00
2023-04-23T05:06:06.945Z,1376.00
2023-04-23T05:07:07.245Z,1400.00
2023-04-23T05:08:07.564Z,1434.00
2023-04-23T05:09:07.844Z,1460.00
2023-04-23T05:10:08.197Z,1491.00
2023-04-23T05:11:08.335Z,1529.00
2023-04-23T05:12:08.646Z,1566.00
2023-04-23T05:13:08.930Z,1608.00
2023-04-23T05:14:09.284Z,1662.00
2023-04-23T05:15:09.585Z,1728.00
2023-04-23T05:16:09.851Z,1804.00
2023-04-23T05:17:10.138Z,1903.00
2023-04-23T05:18:10.317Z,2003.00
2023-04-23T05:19:10.491Z,2114.00
2023-04-23T05:20:10.866Z,2221.00
2023-04-23T05:21:11.093Z,2331.00
2023-04-23T05:22:11.402Z,2425.00
2023-04-23T05:23:11.597Z,2492.00
2023-04-23T05:24:11.879Z,2536.00
2023-04-23T05:25:12.227Z,2553.00
2023-04-23T05:26:12.474Z,2556.00
2023-04-23T05:27:12.778Z,2545.00
2023-04-23T05:28:13.083Z,2546.00
2023-04-23T05:29:13.253Z,2542.00
2023-04-23T05:30:13.567Z,2544.00
2023-04-23T05:31:13.732Z,2552.00
2023-04-23T05:32:14.035Z,2590.00
2023-04-23T05:33:14.069Z,2620.00
2023-04-23T05:34:14.268Z,2656.00
2023-04-23T05:35:14.460Z,2680.00
2023-04-23T05:36:14.611Z,2706.00
2023-04-23T05:37:14.790Z,2719.00
2023-04-23T05:38:15.082Z,2739.00
2023-04-23T05:39:15.264Z,2735.00
2023-04-23T05:40:15.449Z,2719.00
2023-04-23T05:41:15.724Z,2697.00
2023-04-23T05:42:16.041Z,2644.00
2023-04-23T05:43:16.214Z,2594.00
2023-04-23T05:44:16.397Z,2582.00
2023-04-23T05:45:16.597Z,2596.00
2023-04-23T05:46:16.920Z,2626.00
2023-04-23T05:47:17.167Z,2710.00
2023-04-23T05:48:17.350Z,2819.00
2023-04-23T05:49:17.528Z,2922.00
2023-04-23T05:50:17.772Z,3011.00
2023-04-23T05:51:18.012Z,3102.00
2023-04-23T05:52:18.197Z,3184.00
2023-04-23T05:53:18.363Z,3271.00
2023-04-23T05:54:18.656Z,3409.00
2023-04-23T05:55:19.029Z,3582.00
2023-04-23T05:56:19.277Z,3713.00
2023-04-23T05:57:19.567Z,3779.00
2023-04-23T05:58:19.800Z,3823.00
2023-04-23T05:59:19.915Z,3951.00
2023-04-23T06:00:20.154Z,4129.00
2023-04-23T06:01:20.277Z,4281.00
2023-04-23T06:02:23.240Z,4386.00
2023-04-23T06:03:21.080Z,4507.00
2023-04-23T06:04:21.105Z,4655.00
2023-04-23T06:05:21.388Z,4782.00
2023-04-23T06:06:21.304Z,4929.00
2023-04-23T06:07:21.597Z,5151.00
2023-04-23T06:08:23.344Z,5361.00
2023-04-23T06:09:21.926Z,5515.00
2023-04-23T06:10:22.139Z,5621.00
2023-04-23T06:11:22.304Z,5747.00
2023-04-23T06:12:22.471Z,5829.00
2023-04-23T06:13:22.662Z,5753.00
2023-04-23T06:14:22.841Z,5620.00
2023-04-23T06:15:23.082Z,5426.00
2023-04-23T06:16:23.225Z,5186.00
2023-04-23T06:17:23.423Z,4943.00
2023-04-23T06:18:23.601Z,4693.00
2023-04-23T06:19:23.758Z,4429.00
2023-04-23T06:20:23.944Z,4049.00
2023-04-23T06:21:24.097Z,3866.00
2023-04-23T06:22:24.348Z,3708.00
2023-04-23T06:23:24.476Z,3580.00
2023-04-23T06:24:24.658Z,3502.00
2023-04-23T06:25:24.864Z,3479.00
2023-04-23T06:26:25.005Z,3529.00
2023-04-23T06:27:25.180Z,3687.00
2023-04-23T06:28:25.383Z,3906.00
2023-04-23T06:29:25.558Z,4181.00
2023-04-23T06:30:25.789Z,4468.00
2023-04-23T06:31:25.934Z,4778.00
2023-04-23T06:32:26.151Z,5150.00
2023-04-23T06:33:26.274Z,5540.00
2023-04-23T06:34:26.475Z,5880.00
2023-04-23T06:35:26.681Z,6166.00
2023-04-23T06:36:26.815Z,6412.00
2023-04-23T06:37:29.228Z,6601.00
2023-04-23T06:38:27.183Z,6782.00
2023-04-23T06:39:27.374Z,6893.00
2023-04-23T06:40:27.605Z,6961.00
2023-04-23T06:41:27.742Z,6999.00
2023-04-23T06:42:27.935Z,6997.00
2023-04-23T06:43:28.115Z,6973.00
2023-04-23T06:44:28.298Z,6913.00
2023-04-23T06:45:28.506Z,6859.00
2023-04-23T06:46:28.684Z,6805.00
2023-04-23T06:47:28.838Z,6715.00
2023-04-23T06:48:29.179Z,6624.00
2023-04-23T06:49:29.215Z,6508.00
2023-04-23T06:50:29.412Z,6363.00
2023-04-23T06:51:29.604Z,6238.00
2023-04-23T06:52:29.766Z,6088.00
2023-04-23T06:53:29.991Z,5951.00
2023-04-23T06:54:30.168Z,5830.00
2023-04-23T06:55:30.351Z,5746.00
2023-04-23T06:56:30.510Z,5704.00
2023-04-23T06:57:30.668Z,5684.00
2023-04-23T06:58:30.969Z,5692.00
2023-04-23T06:59:31.036Z,5708.00
2023-04-23T07:00:31.266Z,5743.00
2023-04-23T07:01:31.409Z,5816.00
2023-04-23T07:02:31.624Z,5892.00
2023-04-23T07:03:31.908Z,5964.00
2023-04-23T07:04:32.036Z,6005.00
2023-04-23T07:05:32.194Z,6035.00
2023-04-23T07:06:32.290Z,6070.00
2023-04-23T07:07:32.487Z,6144.00
2023-04-23T07:08:32.673Z,6208.00
2023-04-23T07:09:32.857Z,6286.00
2023-04-23T07:10:33.058Z,6414.00
2023-04-23T07:11:33.253Z,6563.00
2023-04-23T07:12:33.409Z,6751.00
2023-04-23T07:13:33.604Z,6890.00
2023-04-23T07:14:33.797Z,6983.00
2023-04-23T07:15:34.051Z,7079.00
2023-04-23T07:16:34.205Z,7208.00
2023-04-23T07:17:34.325Z,7368.00
2023-04-23T07:18:34.520Z,7506.00
2023-04-23T07:19:34.789Z,7704.00
2023-04-23T07:20:34.910Z,7808.00
2023-04-23T07:21:35.079Z,7855.00
2023-04-23T07:22:35.282Z,7842.00
2023-04-23T07:23:35.457Z,7874.00
2023-04-23T07:24:35.995Z,8007.00
2023-04-23T07:25:35.867Z,8163.00
2023-04-23T07:26:36.018Z,8245.00
2023-04-23T07:27:36.206Z,8259.00
2023-04-23T07:28:36.393Z,8032.00
2023-04-23T07:29:36.556Z,8201.00
2023-04-23T07:30:36.798Z,8428.00
2023-04-23T07:31:36.955Z,8424.00
2023-04-23T07:32:37.191Z,8469.00
2023-04-23T07:33:37.366Z,8537.00
2023-04-23T07:34:38.156Z,8453.00
2023-04-23T07:35:37.712Z,8208.00
2023-04-23T07:36:37.897Z,8073.00
2023-04-23T07:37:38.099Z,8262.00
2023-04-23T07:38:38.267Z,8399.00
2023-04-23T07:39:38.466Z,8418.00
2023-04-23T07:40:38.627Z,8055.00
2023-04-23T07:41:38.796Z,7892.00
2023-04-23T07:42:38.994Z,8212.00
2023-04-23T07:43:39.174Z,8120.00
2023-04-23T07:44:39.360Z,8172.00
2023-04-23T07:45:39.678Z,8058.00
2023-04-23T07:46:39.732Z,7814.00
2023-04-23T07:47:39.953Z,7579.00
2023-04-23T07:48:40.119Z,7346.00
2023-04-23T07:49:40.499Z,7067.00
2023-04-23T07:50:40.538Z,6788.00
2023-04-23T07:51:40.671Z,6718.00
2023-04-23T07:52:40.854Z,6736.00
2023-04-23T07:53:41.047Z,6670.00
2023-04-23T07:54:41.283Z,6624.00
2023-04-23T07:55:41.572Z,6669.00
2023-04-23T07:56:43.237Z,6483.00
2023-04-23T07:57:41.815Z,7168.00
2023-04-23T07:58:41.967Z,7468.00
2023-04-23T07:59:42.620Z,7806.00
2023-04-23T08:00:42.379Z,8132.00
2023-04-23T08:01:42.539Z,8492.00
2023-04-23T08:02:42.808Z,8856.00
2023-04-23T08:03:43.055Z,9209.00
2023-04-23T08:04:43.288Z,9433.00
2023-04-23T08:05:43.272Z,9687.00
2023-04-23T08:06:44.422Z,9811.00
2023-04-23T08:07:43.604Z,10041.00
2023-04-23T08:08:43.783Z,10179.00
2023-04-23T08:09:44.204Z,10266.00
2023-04-23T08:10:44.168Z,10331.00
2023-04-23T08:11:44.328Z,10305.00
2023-04-23T08:12:44.542Z,10242.00
2023-04-23T08:13:44.702Z,10198.00
2023-04-23T08:14:44.900Z,10210.00
2023-04-23T08:15:45.150Z,10127.00
2023-04-23T08:16:45.305Z,10152.00
2023-04-23T08:17:45.568Z,10174.00
2023-04-23T08:18:54.516Z,10313.00
2023-04-23T08:19:45.860Z,10514.00
2023-04-23T08:20:46.051Z,10819.00
2023-04-23T08:21:46.227Z,11067.00
2023-04-23T08:22:46.395Z,11174.00
2023-04-23T08:23:46.603Z,11062.00
2023-04-23T08:24:46.806Z,10983.00
2023-04-23T08:25:47.031Z,10924.00
2023-04-23T08:26:47.222Z,10852.00
2023-04-23T08:27:47.382Z,10668.00
2023-04-23T08:28:47.586Z,10214.00
2023-04-23T08:29:47.762Z,9806.00
2023-04-23T08:30:47.932Z,9940.00
2023-04-23T08:31:48.170Z,10090.00
2023-04-23T08:32:48.358Z,10327.00
2023-04-23T08:33:48.505Z,10562.00
2023-04-23T08:34:48.693Z,10152.00
2023-04-23T08:35:48.965Z,10029.00
2023-04-23T08:36:49.041Z,10368.00
2023-04-23T08:37:49.217Z,10634.00
2023-04-23T08:38:49.533Z,10653.00
2023-04-23T08:39:49.628Z,11112.00
2023-04-23T08:40:49.844Z,11069.00
2023-04-23T08:41:50.013Z,11170.00
2023-04-23T08:42:50.212Z,11446.00
2023-04-23T08:43:50.518Z,11709.00
2023-04-23T08:44:50.627Z,11795.00
2023-04-23T08:45:50.863Z,11507.00
2023-04-23T08:46:51.134Z,11717.00
2023-04-23T08:47:51.324Z,11829.00
2023-04-23T08:48:51.402Z,12092.00
2023-04-23T08:49:51.580Z,12710.00
2023-04-23T08:50:51.788Z,12942.00
2023-04-23T08:51:51.965Z,13168.00
2023-04-23T08:52:52.148Z,13037.00
2023-04-23T08:53:52.348Z,12715.00
2023-04-23T08:54:52.487Z,12482.00
2023-04-23T08:55:52.662Z,12486.00
2023-04-23T08:56:52.838Z,12648.00
2023-04-23T08:57:53.025Z,12444.00
2023-04-23T08:58:55.081Z,12541.00
2023-04-23T08:59:53.437Z,12080.00
2023-04-23T09:00:53.722Z,12137.00
2023-04-23T09:01:53.829Z,11600.00
2023-04-23T09:02:54.285Z,11430.00
2023-04-23T09:03:54.425Z,11644.00
2023-04-23T09:04:56.190Z,11382.00
2023-04-23T09:05:54.629Z,11327.00
2023-04-23T09:06:54.801Z,11152.00
2023-04-23T09:07:54.997Z,10913.00
2023-04-23T09:08:55.187Z,11140.00
2023-04-23T09:09:55.366Z,10253.00
2023-04-23T09:10:55.592Z,9869.00
2023-04-23T09:11:55.733Z,10005.00
2023-04-23T09:12:55.896Z,10319.00
2023-04-23T09:13:56.073Z,9660.00
2023-04-23T09:14:56.266Z,9713.00
2023-04-23T09:15:56.474Z,9566.00
2023-04-23T09:16:56.726Z,10509.00
2023-04-23T09:17:57.512Z,10306.00
2023-04-23T09:18:57.025Z,10600.00
2023-04-23T09:19:57.197Z,10494.00
2023-04-23T09:20:57.390Z,11717.00
2023-04-23T09:21:57.575Z,11940.00
2023-04-23T09:22:57.763Z,12769.00
2023-04-23T09:23:57.947Z,12381.00
2023-04-23T09:24:58.128Z,12416.00
2023-04-23T09:25:58.352Z,12434.00
2023-04-23T09:26:58.568Z,12466.00
2023-04-23T09:27:58.719Z,13375.00
2023-04-23T09:28:58.929Z,11808.00
2023-04-23T09:29:59.126Z,12395.00
2023-04-23T09:30:59.345Z,10610.00
2023-04-23T09:31:59.541Z,15562.00
2023-04-23T09:32:59.729Z,12312.00
2023-04-23T09:33:59.897Z,13975.00
2023-04-23T09:35:00.095Z,13002.00
2023-04-23T09:36:00.296Z,13476.00
2023-04-23T09:37:00.447Z,14179.00
2023-04-23T09:38:00.611Z,16153.00
2023-04-23T09:39:00.820Z,15303.00
2023-04-23T09:40:01.006Z,12906.00
2023-04-23T09:41:01.251Z,15057.00
2023-04-23T09:42:01.390Z,15942.00
2023-04-23T09:43:01.600Z,16799.00
2023-04-23T09:44:01.814Z,18605.00
2023-04-23T09:45:02.011Z,21635.00
2023-04-23T09:46:02.316Z,22019.00
2023-04-23T09:47:02.418Z,19514.00
2023-04-23T09:48:02.680Z,18999.00
2023-04-23T09:49:02.836Z,17072.00
2023-04-23T09:50:03.031Z,18242.00
2023-04-23T09:51:03.219Z,19147.00
2023-04-23T09:52:03.394Z,17417.00
2023-04-23T09:53:03.623Z,20620.00
2023-04-23T09:54:03.839Z,25322.00
2023-04-23T09:55:04.042Z,25535.00
2023-04-23T09:56:04.259Z,19248.00
2023-04-23T09:57:04.518Z,15784.00
2023-04-23T09:58:04.666Z,19565.00
2023-04-23T09:59:04.811Z,19469.00
2023-04-23T10:00:13.900Z,20321.00
2023-04-23T10:01:05.307Z,20900.00
2023-04-23T10:02:05.569Z,19187.00
2023-04-23T10:03:05.825Z,20262.00
2023-04-23T10:04:06.203Z,21521.00
2023-04-23T10:05:21.194Z,23340.00
2023-04-23T10:06:07.566Z,22158.00
2023-04-23T10:07:18.052Z,19107.00
2023-04-23T10:08:06.705Z,19595.00
2023-04-23T10:09:06.913Z,20989.00
2023-04-23T10:10:07.144Z,22502.00
2023-04-23T10:11:19.897Z,23893.00
2023-04-23T10:12:13.321Z,24404.00
2023-04-23T10:13:07.725Z,23606.00
2023-04-23T10:14:07.938Z,23175.00
2023-04-23T10:15:08.150Z,21117.00
2023-04-23T10:16:21.273Z,24540.00
2023-04-23T10:17:08.558Z,30522.00
2023-04-23T10:18:08.721Z,21532.00
2023-04-23T10:19:08.912Z,19434.00
2023-04-23T10:20:09.125Z,27375.00
2023-04-23T10:21:09.365Z,24878.00
2023-04-23T10:23:09.766Z,83304.00
2023-04-23T10:24:09.975Z,82325.00
2023-04-23T10:25:10.195Z,79695.00
2023-04-23T10:26:10.410Z,75860.00
2023-04-23T10:27:24.929Z,75189.00
2023-04-23T10:28:10.766Z,75190.00
2023-04-23T10:29:10.981Z,28317.00
2023-04-23T10:30:11.204Z,75011.00
2023-04-23T10:31:11.489Z,75609.00
2023-04-23T10:32:11.609Z,75243.00
2023-04-23T10:33:22.426Z,75321.00
2023-04-23T10:34:12.118Z,75349.00
2023-04-23T10:35:12.295Z,75109.00
2023-04-23T10:36:12.455Z,74901.00
2023-04-23T10:37:12.654Z,74994.00
2023-04-23T10:38:12.838Z,75144.00
2023-04-23T10:39:15.810Z,75248.00
2023-04-23T10:40:13.270Z,75326.00
2023-04-23T10:41:13.501Z,75357.00
2023-04-23T10:42:14.302Z,75313.00
2023-04-23T10:43:13.862Z,75251.00
2023-04-23T10:44:16.113Z,82743.00
2023-04-23T10:45:23.246Z,79290.00
2023-04-23T10:46:14.508Z,79149.00
2023-04-23T10:47:14.670Z,79079.00
2023-04-23T10:48:14.859Z,82422.00
2023-04-23T10:49:15.115Z,83184.00
2023-04-23T10:50:15.347Z,79876.00
2023-04-23T10:52:20.789Z,80170.00
2023-04-23T10:53:15.886Z,82151.00
2023-04-23T10:54:16.057Z,78542.00
2023-04-23T10:55:16.291Z,82857.00
2023-04-23T10:56:16.479Z,81865.00
2023-04-23T10:57:16.638Z,81141.00
2023-04-23T10:58:16.838Z,80888.00
2023-04-23T10:59:17.052Z,80643.00
2023-04-23T11:00:17.254Z,81541.00
2023-04-23T11:01:17.495Z,82735.00
2023-04-23T11:02:17.774Z,82382.00
2023-04-23T11:03:18.047Z,81393.00
2023-04-23T11:04:18.644Z,79534.00
2023-04-23T11:05:18.519Z,76758.00
2023-04-23T11:06:18.475Z,76573.00
2023-04-23T11:07:18.640Z,77754.00
2023-04-23T11:08:20.053Z,79230.00
2023-04-23T11:09:19.069Z,80719.00
2023-04-23T11:10:19.276Z,81512.00
2023-04-23T11:11:19.517Z,80543.00
2023-04-23T11:12:19.673Z,79332.00
2023-04-23T11:13:19.870Z,80155.00
2023-04-23T11:14:20.180Z,80021.00
2023-04-23T11:15:20.347Z,78734.00
2023-04-23T11:16:20.528Z,79512.00
2023-04-23T11:17:20.780Z,81040.00
2023-04-23T11:18:20.956Z,82682.00
2023-04-23T11:19:21.103Z,83350.00
2023-04-23T11:20:21.332Z,82454.00
2023-04-23T11:21:21.555Z,81722.00
2023-04-23T11:22:21.716Z,79544.00
2023-04-23T11:23:21.928Z,76586.00
2023-04-23T11:24:22.143Z,77855.00
2023-04-23T11:25:22.428Z,79043.00
2023-04-23T11:26:22.585Z,79599.00
2023-04-23T11:27:22.782Z,81094.00
2023-04-23T11:28:22.985Z,81092.00
2023-04-23T11:29:23.196Z,80054.00
2023-04-23T11:30:23.397Z,80612.00
2023-04-23T11:31:23.627Z,80385.00
2023-04-23T11:32:23.861Z,80987.00
2023-04-23T11:33:23.967Z,80921.00
2023-04-23T11:34:24.181Z,81151.00
2023-04-23T11:35:24.393Z,82673.00
2023-04-23T11:36:24.618Z,82728.00
2023-04-23T11:37:24.805Z,81450.00
2023-04-23T11:38:24.973Z,81047.00
2023-04-23T11:39:25.196Z,81022.00
2023-04-23T11:40:25.373Z,81752.00
2023-04-23T11:41:25.612Z,82021.00
2023-04-23T11:42:25.821Z,81429.00
2023-04-23T11:43:26.001Z,79971.00
2023-04-23T11:44:26.212Z,78989.00
2023-04-23T11:45:26.438Z,31316.00
2023-04-23T11:46:26.694Z,82238.00
2023-04-23T11:47:26.882Z,82530.00
2023-04-23T11:48:27.034Z,83504.00
2023-04-23T11:49:27.266Z,81995.00
2023-04-23T11:50:27.434Z,76927.00
2023-04-23T11:51:27.661Z,22694.00
2023-04-23T11:52:27.840Z,10015.00
2023-04-23T11:53:28.022Z,9626.00
2023-04-23T11:54:28.265Z,9514.00
2023-04-23T11:55:28.413Z,9471.00
2023-04-23T11:56:28.641Z,9448.00
2023-04-23T11:57:28.804Z,9595.00
2023-04-23T11:58:28.984Z,9807.00
2023-04-23T11:59:29.210Z,14174.00
2023-04-23T12:00:29.391Z,35878.00
2023-04-23T12:01:29.583Z,80063.00
2023-04-23T12:02:30.006Z,81542.00
2023-04-23T12:03:30.083Z,81304.00
2023-04-23T12:04:30.188Z,80372.00
2023-04-23T12:05:30.429Z,79228.00
2023-04-23T12:06:30.570Z,36957.00
2023-04-23T12:07:30.760Z,23449.00
2023-04-23T12:08:30.937Z,23027.00
2023-04-23T12:09:31.155Z,24249.00
2023-04-23T12:10:31.361Z,29679.00
2023-04-23T12:11:31.589Z,30691.00
2023-04-23T12:12:31.774Z,23462.00
2023-04-23T12:13:31.952Z,23050.00
2023-04-23T12:14:32.172Z,28711.00
2023-04-23T12:15:32.374Z,24789.00
2023-04-23T12:16:32.654Z,19476.00
2023-04-23T12:17:32.792Z,27520.00
2023-04-23T12:18:32.965Z,34907.00
2023-04-23T12:19:33.165Z,11469.00
2023-04-23T12:20:33.359Z,21329.00
2023-04-23T12:21:33.625Z,27374.00
2023-04-23T12:22:33.919Z,18635.00
2023-04-23T12:23:33.968Z,11999.00
2023-04-23T12:24:34.175Z,30663.00
2023-04-23T12:25:34.386Z,14480.00
2023-04-23T12:26:34.677Z,10487.00